Terminal Aerodrome Forecast
Issued by NWS

Home | Current Version | Previous Version | Text Only | Print | Product List | Glossary On
Versions: 1 2 3 4 5 6 7 8 9 10 11 12 13 14 15 16 17 18 19 20 21 22 23 24 25 26 27 28
000
FTUS43 KDTX 290522
TAFPTK
TAF
KPTK 290522Z 2906/3006 16010KT P6SM BKN100 OVC200
     FM290900 16012G20KT P6SM SCT045 OVC080
     FM291200 17014KT 5SM -FZRAPL BKN028 OVC040
     FM291600 21010KT 1 1/2SM -SN BKN006 OVC018
     FM291900 29014G20KT 3SM -SHSN BKN012 OVC025
     FM300100 31018G30KT 6SM -SN BKN025 OVC040=

USA.gov is the U.S. government's official web portal to all federal, state and local government web resources and services.